Time,TemperatureF,DewpointF,PressureIn,WindDirection,WindDirectionDegrees,WindSpeedMPH,WindSpeedGustMPH,Humidity,HourlyPrecipIn,Conditions,Clouds,dailyrainin,SoftwareType,DateUTC
2013-01-11 00:00:00,44.8,40.5,30.08,SSE,157,7.6,8.1,85,0.00,,,0.04,WUHU21623XXSP,2013-01-11 05:00:00,
2013-01-11 00:03:00,44.8,40.5,30.08,SSE,157,7.6,8.1,85,0.00,,,0.00,WUHU21623XXSP,2013-01-11 05:03:00,
2013-01-11 00:08:00,45.3,41.1,30.07,SSE,157,7.6,7.6,85,0.00,,,0.00,WUHU21623XXSP,2013-01-11 05:08:00,
2013-01-11 00:13:00,45.7,41.3,30.07,SE,135,9.4,9.4,85,0.00,,,0.00,WUHU21623XXSP,2013-01-11 05:13:00,
2013-01-11 00:18:00,45.9,41.6,30.06,SSE,157,8.9,9.4,85,0.00,,,0.00,WUHU21623XXSP,2013-01-11 05:18:00,
2013-01-11 00:23:00,45.7,41.5,30.06,SSE,157,7.2,8.9,85,0.00,,,0.00,WUHU21623XXSP,2013-01-11 05:23:00,
2013-01-11 00:28:00,45.7,41.1,30.07,SSE,157,8.5,8.9,84,0.00,,,0.00,WUHU21623XXSP,2013-01-11 05:28:00,
2013-01-11 00:33:00,45.5,41.0,30.07,SSE,157,6.5,8.5,84,0.00,,,0.00,WUHU21623XXSP,2013-01-11 05:33:00,
2013-01-11 00:38:00,45.3,40.8,30.06,SSE,157,7.4,8.5,84,0.00,,,0.00,WUHU21623XXSP,2013-01-11 05:38:00,
2013-01-11 00:43:00,45.3,40.8,30.06,SSE,157,7.2,8.1,84,0.00,,,0.00,WUHU21623XXSP,2013-01-11 05:43:00,
2013-01-11 00:48:00,45.5,41.0,30.06,SSE,157,8.5,8.5,84,0.00,,,0.00,WUHU21623XXSP,2013-01-11 05:48:00,
2013-01-11 00:53:00,45.5,41.0,30.06,SSE,157,6.5,8.5,84,0.00,,,0.00,WUHU21623XXSP,2013-01-11 05:53:00,
2013-01-11 00:58:00,45.7,41.5,30.06,SSE,157,5.8,7.4,85,0.00,,,0.00,WUHU21623XXSP,2013-01-11 05:58:00,
2013-01-11 01:03:00,46.0,41.8,30.06,SSE,157,6.5,7.4,85,0.00,,,0.00,WUHU21623XXSP,2013-01-11 06:03:00,
2013-01-11 01:08:00,46.0,41.5,30.06,SSE,157,8.9,8.9,84,0.00,,,0.00,WUHU21623XXSP,2013-01-11 06:08:00,
2013-01-11 01:13:00,46.2,41.7,30.05,SSE,157,6.3,10.5,84,0.00,,,0.00,WUHU21623XXSP,2013-01-11 06:13:00,
2013-01-11 01:18:00,46.2,41.7,30.05,South,180,7.6,10.5,84,0.00,,,0.00,WUHU21623XXSP,2013-01-11 06:18:00,
2013-01-11 01:23:00,46.2,41.7,30.04,SSE,157,6.0,7.6,84,0.00,,,0.00,WUHU21623XXSP,2013-01-11 06:23:00,
2013-01-11 01:28:00,46.6,42.3,30.04,SSE,157,6.3,7.4,85,0.00,,,0.00,WUHU21623XXSP,2013-01-11 06:28:00,
2013-01-11 01:33:00,46.8,42.5,30.03,SSE,157,7.6,11.4,85,0.00,,,0.00,WUHU21623XXSP,2013-01-11 06:33:00,
2013-01-11 01:38:00,46.9,42.7,30.02,SSE,157,6.7,11.4,85,0.00,,,0.00,WUHU21623XXSP,2013-01-11 06:38:00,
2013-01-11 01:43:00,46.9,42.4,30.02,SSE,157,10.3,10.3,84,0.00,,,0.00,WUHU21623XXSP,2013-01-11 06:43:00,
2013-01-11 01:48:00,47.1,42.5,30.01,SSE,157,8.1,10.3,84,0.00,,,0.00,WUHU21623XXSP,2013-01-11 06:48:00,
2013-01-11 01:54:00,46.9,42.4,30.01,SE,135,6.3,9.4,84,0.00,,,0.00,WUHU21623XXSP,2013-01-11 06:54:00,
2013-01-11 01:59:00,46.9,42.4,30.01,SSE,157,8.9,9.4,84,0.00,,,0.00,WUHU21623XXSP,2013-01-11 06:59:00,
2013-01-11 02:04:00,46.9,42.4,30.00,SSE,157,7.8,8.9,84,0.00,,,0.00,WUHU21623XXSP,2013-01-11 07:04:00,
2013-01-11 02:09:00,46.9,42.4,30.00,SSE,157,9.4,9.6,84,0.00,,,0.00,WUHU21623XXSP,2013-01-11 07:09:00,
2013-01-11 02:14:00,46.9,42.4,29.99,SSE,157,7.6,9.6,84,0.00,,,0.00,WUHU21623XXSP,2013-01-11 07:14:00,
2013-01-11 02:19:00,47.1,42.5,29.98,SSE,157,8.7,8.7,84,0.00,,,0.00,WUHU21623XXSP,2013-01-11 07:19:00,
2013-01-11 02:24:00,47.1,42.9,29.98,SSE,157,8.1,9.6,85,0.00,,,0.00,WUHU21623XXSP,2013-01-11 07:24:00,
2013-01-11 02:29:00,47.5,43.2,29.98,SSE,157,8.1,9.6,85,0.00,,,0.00,WUHU21623XXSP,2013-01-11 07:29:00,
2013-01-11 02:34:00,47.8,43.5,29.98,SE,135,8.1,8.9,85,0.00,,,0.00,WUHU21623XXSP,2013-01-11 07:34:00,
2013-01-11 02:39:00,48.0,43.7,29.98,SSE,157,9.2,10.7,85,0.00,,,0.00,WUHU21623XXSP,2013-01-11 07:39:00,
2013-01-11 02:44:00,48.6,44.2,29.98,SSE,157,7.8,10.7,85,0.00,,,0.00,WUHU21623XXSP,2013-01-11 07:44:00,
2013-01-11 02:49:00,48.7,44.4,29.98,SSE,157,10.7,10.7,85,0.00,,,0.00,WUHU21623XXSP,2013-01-11 07:49:00,
2013-01-11 02:54:00,49.1,44.7,29.98,SSE,157,10.5,10.7,85,0.00,,,0.00,WUHU21623XXSP,2013-01-11 07:54:00,
2013-01-11 02:59:00,49.3,44.9,29.97,SE,135,7.8,10.5,85,0.00,,,0.00,WUHU21623XXSP,2013-01-11 07:59:00,
2013-01-11 03:04:00,49.3,44.9,29.98,SE,135,7.8,10.5,85,0.00,,,0.00,WUHU21623XXSP,2013-01-11 08:04:00,
2013-01-11 03:09:00,49.6,45.2,29.97,SSE,157,9.8,9.8,85,0.00,,,0.00,WUHU21623XXSP,2013-01-11 08:09:00,
2013-01-11 03:14:00,49.8,45.4,29.97,SSE,157,9.2,9.8,85,0.00,,,0.00,WUHU21623XXSP,2013-01-11 08:14:00,
2013-01-11 03:19:00,49.8,45.1,29.97,South,180,7.2,9.2,84,0.00,,,0.00,WUHU21623XXSP,2013-01-11 08:19:00,
2013-01-11 03:24:00,50.0,45.3,29.97,SSE,157,8.7,8.7,84,0.00,,,0.00,WUHU21623XXSP,2013-01-11 08:24:00,
2013-01-11 03:29:00,49.8,45.1,29.96,SSE,157,8.7,8.7,84,0.00,,,0.00,WUHU21623XXSP,2013-01-11 08:29:00,
2013-01-11 03:34:00,49.8,45.1,29.96,SSE,157,12.1,12.1,84,0.00,,,0.00,WUHU21623XXSP,2013-01-11 08:34:00,
2013-01-11 03:39:00,49.8,45.4,29.96,SSE,157,8.1,12.1,85,0.00,,,0.00,WUHU21623XXSP,2013-01-11 08:39:00,
2013-01-11 03:44:00,49.8,45.4,29.95,SSE,157,8.1,10.7,85,0.00,,,0.00,WUHU21623XXSP,2013-01-11 08:44:00,
2013-01-11 03:49:00,50.0,45.6,29.95,SSE,157,8.5,9.4,85,0.02,,,0.02,WUHU21623XXSP,2013-01-11 08:49:00,
2013-01-11 03:54:00,50.2,46.1,29.94,SSE,157,11.4,13.4,86,0.06,,,0.06,WUHU21623XXSP,2013-01-11 08:54:00,
2013-01-11 03:59:00,50.4,46.3,29.94,South,180,9.8,13.4,86,0.06,,,0.06,WUHU21623XXSP,2013-01-11 08:59:00,
2013-01-11 04:04:00,50.4,46.3,29.94,SSE,157,8.7,9.8,86,0.08,,,0.08,WUHU21623XXSP,2013-01-11 09:04:00,
2013-01-11 04:09:00,50.4,46.3,29.93,SSE,157,9.8,9.8,86,0.12,,,0.12,WUHU21623XXSP,2013-01-11 09:09:00,
2013-01-11 04:14:00,50.5,46.7,29.93,SSE,157,10.1,11.0,87,0.25,,,0.25,WUHU21623XXSP,2013-01-11 09:14:00,
2013-01-11 04:19:00,50.5,46.7,29.92,SSE,157,6.7,11.0,87,0.37,,,0.37,WUHU21623XXSP,2013-01-11 09:19:00,
2013-01-11 04:24:00,50.5,46.7,29.91,SSE,157,8.9,10.1,87,0.43,,,0.43,WUHU21623XXSP,2013-01-11 09:24:00,
2013-01-11 04:29:00,50.5,47.0,29.91,SE,135,10.3,10.3,88,0.45,,,0.45,WUHU21623XXSP,2013-01-11 09:29:00,
2013-01-11 04:34:00,50.5,47.0,29.91,SSE,157,9.6,10.3,88,0.45,,,0.45,WUHU21623XXSP,2013-01-11 09:34:00,
2013-01-11 04:39:00,50.7,47.2,29.92,South,180,9.6,9.6,88,0.45,,,0.45,WUHU21623XXSP,2013-01-11 09:39:00,
2013-01-11 04:44:00,50.7,47.2,29.92,South,180,8.5,9.6,88,0.43,,,0.45,WUHU21623XXSP,2013-01-11 09:44:00,
2013-01-11 04:49:00,50.7,47.2,29.93,South,180,6.3,8.7,88,0.43,,,0.45,WUHU21623XXSP,2013-01-11 09:49:00,
2013-01-11 04:54:00,50.7,47.2,29.96,West,270,2.5,6.5,88,0.41,,,0.47,WUHU21623XXSP,2013-01-11 09:54:00,
2013-01-11 04:59:00,50.5,47.2,29.98,West,270,3.6,6.7,88,0.43,,,0.51,WUHU21623XXSP,2013-01-11 09:59:00,
2013-01-11 05:04:00,50.4,46.9,29.96,WSW,247,0.0,6.7,88,0.41,,,0.51,WUHU21623XXSP,2013-01-11 10:04:00,
2013-01-11 05:09:00,50.4,46.9,29.96,WSW,247,2.0,3.8,88,0.35,,,0.51,WUHU21623XXSP,2013-01-11 10:09:00,
2013-01-11 05:14:00,50.2,46.7,29.96,SW,225,2.0,2.0,88,0.22,,,0.55,WUHU21623XXSP,2013-01-11 10:14:00,
2013-01-11 05:19:00,50.2,47.0,29.96,SW,225,1.3,2.0,89,0.16,,,0.59,WUHU21623XXSP,2013-01-11 10:19:00,
2013-01-11 05:24:00,50.2,47.0,29.95,South,180,1.3,1.3,89,0.14,,,0.59,WUHU21623XXSP,2013-01-11 10:24:00,
2013-01-11 05:29:00,50.2,47.0,29.95,South,180,4.0,4.0,89,0.14,,,0.59,WUHU21623XXSP,2013-01-11 10:29:00,
2013-01-11 05:34:00,50.2,47.0,29.94,SSE,157,5.8,5.8,89,0.14,,,0.59,WUHU21623XXSP,2013-01-11 10:34:00,
2013-01-11 05:39:00,49.8,46.6,29.93,SSE,157,3.1,5.8,89,0.14,,,0.59,WUHU21623XXSP,2013-01-11 10:39:00,
2013-01-11 05:44:00,49.8,46.6,29.91,SSE,157,5.1,5.1,89,0.18,,,0.63,WUHU21623XXSP,2013-01-11 10:44:00,
2013-01-11 05:49:00,50.0,46.8,29.90,SE,135,2.9,5.1,89,0.18,,,0.65,WUHU21623XXSP,2013-01-11 10:49:00,
2013-01-11 05:54:00,50.2,47.0,29.87,East,90,0.0,2.9,89,0.20,,,0.67,WUHU21623XXSP,2013-01-11 10:54:00,
2013-01-11 05:59:00,50.5,47.2,29.91,SSE,157,6.3,6.3,89,0.16,,,0.67,WUHU21623XXSP,2013-01-11 10:59:00,
2013-01-11 06:04:00,50.5,47.4,29.91,SSE,157,4.5,6.5,89,0.19,,,0.70,WUHU21623XXSP,2013-01-11 11:04:00,
2013-01-11 06:09:00,50.5,47.4,29.91,South,180,6.0,6.9,89,0.15,,,0.70,WUHU21623XXSP,2013-01-11 11:09:00,
2013-01-11 06:14:00,50.9,47.7,29.93,SSE,157,7.2,9.8,89,0.11,,,0.70,WUHU21623XXSP,2013-01-11 11:14:00,
2013-01-11 06:19:00,51.1,47.7,29.92,SSE,157,7.2,9.8,89,0.11,,,0.70,WUHU21623XXSP,2013-01-11 11:19:00,
2013-01-11 06:24:00,51.1,47.9,29.91,SSE,157,5.6,8.5,89,0.13,,,0.72,WUHU21623XXSP,2013-01-11 11:24:00,
2013-01-11 06:29:00,51.3,48.2,29.90,SSE,157,8.9,8.9,90,0.15,,,0.74,WUHU21623XXSP,2013-01-11 11:29:00,
2013-01-11 06:34:00,51.4,48.6,29.90,SSE,157,8.1,8.9,90,0.17,,,0.76,WUHU21623XXSP,2013-01-11 11:34:00,
2013-01-11 06:39:00,51.4,48.6,29.88,SE,135,6.3,8.9,90,0.15,,,0.78,WUHU21623XXSP,2013-01-11 11:39:00,
2013-01-11 06:44:00,51.6,48.7,29.88,SE,135,7.2,8.9,90,0.13,,,0.78,WUHU21623XXSP,2013-01-11 11:44:00,
2013-01-11 06:49:00,51.6,48.7,29.88,SSE,157,8.3,8.3,90,0.11,,,0.78,WUHU21623XXSP,2013-01-11 11:49:00,
2013-01-11 06:54:00,51.8,48.9,29.87,SSE,157,4.7,8.3,90,0.13,,,0.80,WUHU21623XXSP,2013-01-11 11:54:00,
2013-01-11 06:59:00,51.8,48.9,29.87,SSE,157,4.7,5.4,90,0.10,,,0.80,WUHU21623XXSP,2013-01-11 11:59:00,
2013-01-11 07:04:00,51.8,48.9,29.86,SSE,157,9.4,9.4,90,0.10,,,0.80,WUHU21623XXSP,2013-01-11 12:04:00,
2013-01-11 07:09:00,52.0,49.1,29.86,SSE,157,10.3,11.2,90,0.10,,,0.80,WUHU21623XXSP,2013-01-11 12:09:00,
2013-01-11 07:14:00,52.3,49.5,29.87,SSE,157,9.6,11.2,90,0.10,,,0.80,WUHU21623XXSP,2013-01-11 12:14:00,
2013-01-11 07:19:00,52.5,49.6,29.86,SSE,157,7.2,10.1,90,0.08,,,0.80,WUHU21623XXSP,2013-01-11 12:19:00,
2013-01-11 07:24:00,52.5,49.6,29.86,SSE,157,8.1,9.6,90,0.06,,,0.80,WUHU21623XXSP,2013-01-11 12:24:00,
2013-01-11 07:29:00,52.5,49.9,29.87,SSE,157,9.2,9.2,91,0.04,,,0.80,WUHU21623XXSP,2013-01-11 12:29:00,
2013-01-11 07:34:00,52.7,50.1,29.88,SSE,157,9.6,10.3,91,0.02,,,0.80,WUHU21623XXSP,2013-01-11 12:34:00,
2013-01-11 07:39:00,52.9,50.3,29.88,South,180,8.3,10.3,91,0.02,,,0.80,WUHU21623XXSP,2013-01-11 12:39:00,
2013-01-11 07:44:00,53.1,50.5,29.87,South,180,6.7,9.2,91,0.02,,,0.80,WUHU21623XXSP,2013-01-11 12:44:00,
2013-01-11 07:49:00,53.1,50.5,29.87,SSE,157,3.8,10.7,91,0.02,,,0.80,WUHU21623XXSP,2013-01-11 12:49:00,
2013-01-11 07:54:00,52.9,50.3,29.89,South,180,8.1,10.7,91,0.00,,,0.80,WUHU21623XXSP,2013-01-11 12:54:00,
2013-01-11 07:59:00,52.9,50.3,29.89,South,180,5.8,8.1,91,0.00,,,0.80,WUHU21623XXSP,2013-01-11 12:59:00,
2013-01-11 08:04:00,52.9,50.3,29.89,South,180,4.9,6.7,91,0.00,,,0.80,WUHU21623XXSP,2013-01-11 13:04:00,
2013-01-11 08:09:00,52.5,49.9,29.89,South,180,6.3,7.4,91,0.00,,,0.80,WUHU21623XXSP,2013-01-11 13:09:00,
2013-01-11 08:14:00,52.7,50.1,29.89,South,180,7.4,9.4,91,0.00,,,0.80,WUHU21623XXSP,2013-01-11 13:14:00,
2013-01-11 08:19:00,52.9,50.3,29.89,South,180,6.9,9.4,91,0.00,,,0.80,WUHU21623XXSP,2013-01-11 13:19:00,
2013-01-11 08:24:00,53.2,50.6,29.89,South,180,6.3,7.4,91,0.00,,,0.80,WUHU21623XXSP,2013-01-11 13:24:00,
2013-01-11 08:29:00,53.4,50.8,29.89,SSE,157,5.6,10.1,91,0.00,,,0.80,WUHU21623XXSP,2013-01-11 13:29:00,
2013-01-11 08:34:00,53.4,50.8,29.90,SW,225,12.8,12.8,91,0.00,,,0.80,WUHU21623XXSP,2013-01-11 13:34:00,
2013-01-11 08:39:00,53.4,50.8,29.90,South,180,3.8,12.8,91,0.00,,,0.80,WUHU21623XXSP,2013-01-11 13:39:00,
2013-01-11 08:44:00,53.2,50.6,29.90,South,180,9.4,9.4,91,0.00,,,0.80,WUHU21623XXSP,2013-01-11 13:44:00,
2013-01-11 08:49:00,53.4,50.8,29.90,South,180,5.1,9.4,91,0.00,,,0.80,WUHU21623XXSP,2013-01-11 13:49:00,
2013-01-11 08:54:00,53.4,50.8,29.90,South,180,6.7,7.2,91,0.00,,,0.80,WUHU21623XXSP,2013-01-11 13:54:00,
2013-01-11 08:59:00,53.4,50.8,29.91,SSW,202,8.5,8.5,91,0.00,,,0.80,WUHU21623XXSP,2013-01-11 13:59:00,
2013-01-11 09:04:00,53.4,50.8,29.91,South,180,6.9,8.5,91,0.00,,,0.80,WUHU21623XXSP,2013-01-11 14:04:00,
2013-01-11 09:09:00,53.8,51.2,29.91,South,180,8.5,8.5,91,0.00,,,0.80,WUHU21623XXSP,2013-01-11 14:09:00,
2013-01-11 09:14:00,53.8,51.2,29.91,SSW,202,10.3,10.3,91,0.00,,,0.80,WUHU21623XXSP,2013-01-11 14:14:00,
2013-01-11 09:19:00,53.6,51.3,29.91,SSW,202,12.1,12.1,92,0.00,,,0.80,WUHU21623XXSP,2013-01-11 14:19:00,
2013-01-11 09:24:00,53.8,51.5,29.91,SSW,202,13.9,13.9,92,0.00,,,0.80,WUHU21623XXSP,2013-01-11 14:24:00,
2013-01-11 09:29:00,54.0,51.7,29.91,South,180,7.8,13.9,92,0.00,,,0.80,WUHU21623XXSP,2013-01-11 14:29:00,
2013-01-11 09:34:00,54.1,51.8,29.91,SSW,202,15.2,15.2,92,0.00,,,0.80,WUHU21623XXSP,2013-01-11 14:34:00,
2013-01-11 09:39:00,54.3,52.0,29.91,SSW,202,12.3,15.2,92,0.00,,,0.80,WUHU21623XXSP,2013-01-11 14:39:00,
2013-01-11 09:44:00,54.3,52.0,29.91,SSW,202,12.5,15.0,92,0.00,,,0.80,WUHU21623XXSP,2013-01-11 14:44:00,
2013-01-11 09:49:00,54.7,52.4,29.91,SSW,202,15.2,15.2,92,0.00,,,0.80,WUHU21623XXSP,2013-01-11 14:49:00,
2013-01-11 09:54:00,54.9,52.6,29.91,SSW,202,7.8,15.2,92,0.00,,,0.80,WUHU21623XXSP,2013-01-11 14:54:00,
2013-01-11 09:59:00,55.0,52.7,29.91,South,180,7.4,13.0,92,0.00,,,0.80,WUHU21623XXSP,2013-01-11 14:59:00,
2013-01-11 10:04:00,55.2,52.9,29.91,SSW,202,7.8,10.3,92,0.00,,,0.80,WUHU21623XXSP,2013-01-11 15:04:00,
2013-01-11 10:09:00,55.2,52.9,29.91,South,180,6.7,10.3,92,0.00,,,0.80,WUHU21623XXSP,2013-01-11 15:09:00,
2013-01-11 10:14:00,55.6,53.3,29.92,SSW,202,5.1,6.7,92,0.00,,,0.80,WUHU21623XXSP,2013-01-11 15:14:00,
2013-01-11 10:19:00,55.9,53.3,29.91,SSW,202,7.2,7.2,91,0.00,,,0.80,WUHU21623XXSP,2013-01-11 15:19:00,
2013-01-11 10:24:00,56.3,53.7,29.92,SSW,202,2.5,7.2,91,0.00,,,0.80,WUHU21623XXSP,2013-01-11 15:24:00,
2013-01-11 10:29:00,56.5,53.9,29.92,SW,225,6.5,6.7,91,0.00,,,0.80,WUHU21623XXSP,2013-01-11 15:29:00,
2013-01-11 10:34:00,56.3,53.7,29.92,SW,225,6.3,6.5,91,0.00,,,0.80,WUHU21623XXSP,2013-01-11 15:34:00,
2013-01-11 10:39:00,56.3,53.7,29.92,SSW,202,7.4,7.4,91,0.00,,,0.80,WUHU21623XXSP,2013-01-11 15:39:00,
2013-01-11 10:44:00,56.3,53.7,29.92,SW,225,6.9,7.4,91,0.00,,,0.80,WUHU21623XXSP,2013-01-11 15:44:00,
2013-01-11 10:49:00,56.8,54.2,29.93,SW,225,6.5,7.4,91,0.00,,,0.80,WUHU21623XXSP,2013-01-11 15:49:00,
2013-01-11 10:54:00,57.0,54.1,29.93,WSW,247,8.1,8.5,90,0.00,,,0.80,WUHU21623XXSP,2013-01-11 15:54:00,
2013-01-11 10:59:00,57.0,53.8,29.93,SW,225,6.5,8.5,89,0.00,,,0.80,WUHU21623XXSP,2013-01-11 15:59:00,
2013-01-11 11:04:00,57.0,53.8,29.92,WSW,247,7.2,7.4,89,0.00,,,0.80,WUHU21623XXSP,2013-01-11 16:04:00,
2013-01-11 11:09:00,57.7,54.2,29.93,SW,225,6.5,7.2,88,0.00,,,0.80,WUHU21623XXSP,2013-01-11 16:09:00,
2013-01-11 11:14:00,57.7,53.9,29.93,SW,225,7.4,7.4,87,0.00,,,0.80,WUHU21623XXSP,2013-01-11 16:14:00,
2013-01-11 11:19:00,57.9,53.7,29.93,SW,225,5.8,7.4,86,0.00,,,0.80,WUHU21623XXSP,2013-01-11 16:19:00,
2013-01-11 11:24:00,57.9,53.7,29.93,SW,225,5.6,7.4,86,0.00,,,0.80,WUHU21623XXSP,2013-01-11 16:24:00,
2013-01-11 11:29:00,57.9,53.4,29.93,SW,225,4.7,6.7,85,0.00,,,0.80,WUHU21623XXSP,2013-01-11 16:29:00,
2013-01-11 11:34:00,57.6,53.1,29.92,WSW,247,6.7,6.7,85,0.00,,,0.80,WUHU21623XXSP,2013-01-11 16:34:00,
2013-01-11 11:39:00,57.4,52.6,29.92,SSW,202,6.3,7.8,84,0.00,,,0.80,WUHU21623XXSP,2013-01-11 16:39:00,
2013-01-11 11:44:00,57.4,52.6,29.93,SW,225,5.8,7.8,84,0.00,,,0.80,WUHU21623XXSP,2013-01-11 16:44:00,
2013-01-11 11:49:00,57.4,52.6,29.93,SW,225,6.9,6.9,84,0.00,,,0.80,WUHU21623XXSP,2013-01-11 16:49:00,
2013-01-11 11:54:00,57.6,52.7,29.93,SW,225,6.5,6.9,84,0.00,,,0.80,WUHU21623XXSP,2013-01-11 16:54:00,
2013-01-11 11:59:00,57.7,52.6,29.92,SW,225,10.7,10.7,83,0.00,,,0.80,WUHU21623XXSP,2013-01-11 16:59:00,
2013-01-11 12:04:00,57.9,52.8,29.92,SW,225,7.2,10.7,83,0.00,,,0.80,WUHU21623XXSP,2013-01-11 17:04:00,
2013-01-11 12:09:00,57.7,52.8,29.92,SW,225,7.8,8.1,83,0.00,,,0.80,WUHU21623XXSP,2013-01-11 17:09:00,
2013-01-11 12:14:00,57.7,52.3,29.92,SW,225,8.1,9.6,82,0.00,,,0.80,WUHU21623XXSP,2013-01-11 17:14:00,
2013-01-11 12:19:00,57.9,52.4,29.91,SW,225,7.8,9.6,82,0.00,,,0.80,WUHU21623XXSP,2013-01-11 17:19:00,
2013-01-11 12:24:00,57.9,52.1,29.91,SW,225,7.8,8.7,81,0.00,,,0.80,WUHU21623XXSP,2013-01-11 17:24:00,
2013-01-11 12:29:00,57.7,51.9,29.91,SW,225,7.2,7.8,81,0.00,,,0.80,WUHU21623XXSP,2013-01-11 17:29:00,
2013-01-11 12:34:00,57.7,51.9,29.91,SW,225,6.7,7.8,81,0.00,,,0.80,WUHU21623XXSP,2013-01-11 17:34:00,
2013-01-11 12:39:00,57.6,51.8,29.91,SW,225,5.6,7.8,81,0.00,,,0.80,WUHU21623XXSP,2013-01-11 17:39:00,
2013-01-11 12:44:00,57.4,51.6,29.91,SW,225,6.0,6.7,81,0.00,,,0.80,WUHU21623XXSP,2013-01-11 17:44:00,
2013-01-11 12:49:00,57.0,51.2,29.91,WSW,247,4.7,6.0,81,0.00,,,0.80,WUHU21623XXSP,2013-01-11 17:49:00,
2013-01-11 12:54:00,56.8,51.0,29.91,SW,225,9.4,9.4,81,0.00,,,0.80,WUHU21623XXSP,2013-01-11 17:54:00,
2013-01-11 12:59:00,57.2,51.2,29.91,SW,225,8.3,9.4,81,0.00,,,0.80,WUHU21623XXSP,2013-01-11 17:59:00,
2013-01-11 13:04:00,58.3,52.4,29.91,SW,225,6.9,8.3,82,0.00,,,0.80,WUHU21623XXSP,2013-01-11 18:04:00,
2013-01-11 13:09:00,58.8,53.0,29.91,SSW,202,4.7,6.9,81,0.00,,,0.80,WUHU21623XXSP,2013-01-11 18:09:00,
2013-01-11 13:14:00,58.8,52.7,29.91,SW,225,6.7,6.9,80,0.00,,,0.80,WUHU21623XXSP,2013-01-11 18:14:00,
2013-01-11 13:19:00,58.8,52.3,29.91,SW,225,9.2,9.2,79,0.00,,,0.80,WUHU21623XXSP,2013-01-11 18:19:00,
2013-01-11 13:24:00,58.8,52.3,29.91,SSW,202,6.7,9.2,79,0.00,,,0.80,WUHU21623XXSP,2013-01-11 18:24:00,
2013-01-11 13:29:00,59.2,52.0,29.91,SSW,202,6.3,6.7,77,0.00,,,0.80,WUHU21623XXSP,2013-01-11 18:29:00,
2013-01-11 13:34:00,58.8,51.6,29.91,SW,225,10.3,11.0,77,0.00,,,0.80,WUHU21623XXSP,2013-01-11 18:34:00,
2013-01-11 13:39:00,59.4,52.2,29.91,SW,225,5.4,11.0,77,0.00,,,0.80,WUHU21623XXSP,2013-01-11 18:39:00,
2013-01-11 13:44:00,58.8,51.3,29.91,SW,225,6.0,7.2,76,0.00,,,0.80,WUHU21623XXSP,2013-01-11 18:44:00,
2013-01-11 13:49:00,58.3,51.1,29.91,SSW,202,6.7,7.2,77,0.00,,,0.80,WUHU21623XXSP,2013-01-11 18:49:00,
2013-01-11 13:54:00,58.3,51.4,29.91,SW,225,5.8,6.7,78,0.00,,,0.80,WUHU21623XXSP,2013-01-11 18:54:00,
2013-01-11 13:59:00,58.8,52.3,29.91,SSW,202,5.8,6.5,79,0.00,,,0.80,WUHU21623XXSP,2013-01-11 18:59:00,
2013-01-11 14:04:00,58.8,52.0,29.92,SSW,202,8.9,8.9,78,0.00,,,0.80,WUHU21623XXSP,2013-01-11 19:04:00,
2013-01-11 14:09:00,58.8,51.6,29.92,SW,225,5.6,8.9,77,0.00,,,0.80,WUHU21623XXSP,2013-01-11 19:09:00,
2013-01-11 14:14:00,58.8,51.6,29.92,SW,225,6.0,8.9,77,0.00,,,0.80,WUHU21623XXSP,2013-01-11 19:14:00,
2013-01-11 14:19:00,58.8,51.3,29.92,SW,225,8.7,8.7,76,0.00,,,0.80,WUHU21623XXSP,2013-01-11 19:19:00,
2013-01-11 14:24:00,58.8,51.3,29.91,WSW,247,7.4,8.7,76,0.00,,,0.80,WUHU21623XXSP,2013-01-11 19:24:00,
2013-01-11 14:29:00,59.2,51.6,29.92,SW,225,5.4,7.4,76,0.00,,,0.80,WUHU21623XXSP,2013-01-11 19:29:00,
2013-01-11 14:34:00,59.2,51.3,29.92,SSW,202,2.9,6.7,75,0.00,,,0.80,WUHU21623XXSP,2013-01-11 19:34:00,
2013-01-11 14:39:00,59.2,51.6,29.92,SW,225,6.5,6.7,76,0.00,,,0.80,WUHU21623XXSP,2013-01-11 19:39:00,
2013-01-11 14:44:00,59.2,51.3,29.92,SW,225,6.3,6.5,75,0.00,,,0.80,WUHU21623XXSP,2013-01-11 19:44:00,
2013-01-11 14:49:00,59.7,51.6,29.92,WSW,247,6.3,6.5,75,0.00,,,0.80,WUHU21623XXSP,2013-01-11 19:49:00,
2013-01-11 14:54:00,60.1,52.2,29.93,SW,225,6.5,6.5,75,0.00,,,0.80,WUHU21623XXSP,2013-01-11 19:54:00,
2013-01-11 14:59:00,60.1,51.4,29.93,SSW,202,4.7,6.5,73,0.00,,,0.80,WUHU21623XXSP,2013-01-11 19:59:00,
2013-01-11 15:04:00,59.5,50.9,29.93,SSW,202,5.8,6.5,73,0.00,,,0.80,WUHU21623XXSP,2013-01-11 20:04:00,
2013-01-11 15:09:00,58.8,50.2,29.92,South,180,10.3,10.3,73,0.00,,,0.80,WUHU21623XXSP,2013-01-11 20:09:00,
2013-01-11 15:14:00,58.8,50.2,29.93,SSW,202,6.5,10.3,73,0.00,,,0.80,WUHU21623XXSP,2013-01-11 20:14:00,
2013-01-11 15:19:00,58.5,50.2,29.93,SSW,202,7.8,7.8,74,0.00,,,0.80,WUHU21623XXSP,2013-01-11 20:19:00,
2013-01-11 15:24:00,58.6,50.5,29.93,SSW,202,9.8,9.8,74,0.00,,,0.80,WUHU21623XXSP,2013-01-11 20:24:00,
2013-01-11 15:29:00,58.5,50.2,29.93,SSW,202,8.9,9.8,74,0.00,,,0.80,WUHU21623XXSP,2013-01-11 20:29:00,
2013-01-11 15:34:00,58.5,50.5,29.93,SSW,202,6.5,8.9,75,0.00,,,0.80,WUHU21623XXSP,2013-01-11 20:34:00,
2013-01-11 15:39:00,58.6,50.7,29.93,SSW,202,7.4,9.6,75,0.00,,,0.80,WUHU21623XXSP,2013-01-11 20:39:00,
2013-01-11 15:44:00,58.6,50.7,29.93,SW,225,7.4,9.6,75,0.00,,,0.80,WUHU21623XXSP,2013-01-11 20:44:00,
2013-01-11 15:49:00,58.6,50.7,29.94,South,180,7.4,7.4,75,0.00,,,0.80,WUHU21623XXSP,2013-01-11 20:49:00,
2013-01-11 15:54:00,58.3,50.0,29.93,SSW,202,6.9,7.4,74,0.00,,,0.80,WUHU21623XXSP,2013-01-11 20:54:00,
2013-01-11 15:59:00,58.5,50.5,29.93,SSW,202,6.9,7.4,75,0.00,,,0.80,WUHU21623XXSP,2013-01-11 20:59:00,
2013-01-11 16:04:00,58.8,50.9,29.93,SSE,157,6.3,7.6,75,0.00,,,0.80,WUHU21623XXSP,2013-01-11 21:04:00,
2013-01-11 16:09:00,58.8,50.9,29.93,South,180,5.6,9.2,75,0.00,,,0.80,WUHU21623XXSP,2013-01-11 21:09:00,
2013-01-11 16:14:00,58.8,50.9,29.92,SSW,202,7.6,9.2,75,0.00,,,0.80,WUHU21623XXSP,2013-01-11 21:14:00,
2013-01-11 16:19:00,58.6,50.7,29.93,SW,225,7.8,10.5,75,0.00,,,0.80,WUHU21623XXSP,2013-01-11 21:19:00,
2013-01-11 16:24:00,58.5,50.2,29.93,South,180,9.8,10.5,74,0.00,,,0.80,WUHU21623XXSP,2013-01-11 21:24:00,
2013-01-11 16:29:00,58.5,50.2,29.93,SSW,202,5.4,9.8,74,0.00,,,0.80,WUHU21623XXSP,2013-01-11 21:29:00,
2013-01-11 16:34:00,58.5,50.5,29.93,SSW,202,7.6,7.6,75,0.00,,,0.80,WUHU21623XXSP,2013-01-11 21:34:00,
2013-01-11 16:39:00,58.3,50.0,29.93,South,180,7.2,8.3,74,0.00,,,0.80,WUHU21623XXSP,2013-01-11 21:39:00,
2013-01-11 16:44:00,57.9,49.6,29.93,South,180,8.7,8.7,74,0.00,,,0.80,WUHU21623XXSP,2013-01-11 21:44:00,
2013-01-11 16:49:00,57.7,49.6,29.93,SSW,202,6.9,8.7,74,0.00,,,0.80,WUHU21623XXSP,2013-01-11 21:49:00,
2013-01-11 16:54:00,57.6,49.3,29.93,SSW,202,8.5,8.7,74,0.00,,,0.80,WUHU21623XXSP,2013-01-11 21:54:00,
2013-01-11 16:59:00,57.4,49.5,29.93,South,180,7.2,8.7,75,0.00,,,0.80,WUHU21623XXSP,2013-01-11 21:59:00,
2013-01-11 17:04:00,57.0,49.1,29.94,South,180,7.2,7.6,75,0.00,,,0.80,WUHU21623XXSP,2013-01-11 22:04:00,
2013-01-11 17:09:00,56.5,48.6,29.93,SSW,202,6.5,10.7,75,0.00,,,0.80,WUHU21623XXSP,2013-01-11 22:09:00,
2013-01-11 17:14:00,56.5,48.6,29.93,SSW,202,5.6,10.7,75,0.00,,,0.80,WUHU21623XXSP,2013-01-11 22:14:00,
2013-01-11 17:19:00,56.1,48.3,29.93,SSW,202,7.6,10.3,75,0.00,,,0.80,WUHU21623XXSP,2013-01-11 22:19:00,
2013-01-11 17:24:00,55.8,47.9,29.93,SSW,202,7.2,10.3,75,0.00,,,0.80,WUHU21623XXSP,2013-01-11 22:24:00,
2013-01-11 17:29:00,55.6,47.7,29.94,South,180,6.0,7.8,75,0.00,,,0.80,WUHU21623XXSP,2013-01-11 22:29:00,
2013-01-11 17:34:00,54.7,47.2,29.94,South,180,2.2,6.5,76,0.00,,,0.80,WUHU21623XXSP,2013-01-11 22:34:00,
2013-01-11 17:39:00,54.1,46.7,29.94,South,180,2.5,2.9,76,0.00,,,0.80,WUHU21623XXSP,2013-01-11 22:39:00,
2013-01-11 17:44:00,53.2,46.2,29.94,South,180,2.0,4.3,77,0.00,,,0.80,WUHU21623XXSP,2013-01-11 22:44:00,
2013-01-11 17:49:00,52.5,45.9,29.94,South,180,2.9,4.9,78,0.00,,,0.80,WUHU21623XXSP,2013-01-11 22:49:00,
2013-01-11 17:54:00,52.0,45.7,29.95,South,180,3.4,4.9,79,0.00,,,0.80,WUHU21623XXSP,2013-01-11 22:54:00,
2013-01-11 17:59:00,51.6,45.3,29.95,South,180,2.7,4.5,79,0.00,,,0.80,WUHU21623XXSP,2013-01-11 22:59:00,
2013-01-11 18:04:00,51.3,45.3,29.95,South,180,3.4,4.5,80,0.00,,,0.80,WUHU21623XXSP,2013-01-11 23:04:00,
2013-01-11 18:09:00,51.3,45.6,29.94,South,180,5.1,5.1,81,0.00,,,0.80,WUHU21623XXSP,2013-01-11 23:09:00,
2013-01-11 18:14:00,51.4,45.8,29.94,SSE,157,6.5,6.5,81,0.00,,,0.80,WUHU21623XXSP,2013-01-11 23:14:00,
2013-01-11 18:19:00,51.4,46.1,29.94,SSE,157,4.9,6.5,82,0.00,,,0.80,WUHU21623XXSP,2013-01-11 23:19:00,
2013-01-11 18:24:00,51.4,46.1,29.94,SSE,157,7.2,7.2,82,0.00,,,0.80,WUHU21623XXSP,2013-01-11 23:24:00,
2013-01-11 18:29:00,51.1,45.8,29.94,SSE,157,6.0,7.2,82,0.00,,,0.80,WUHU21623XXSP,2013-01-11 23:29:00,
2013-01-11 18:34:00,50.9,45.6,29.94,SSE,157,5.1,6.9,82,0.00,,,0.80,WUHU21623XXSP,2013-01-11 23:34:00,
2013-01-11 18:39:00,50.9,45.6,29.94,SSE,157,5.1,6.7,82,0.00,,,0.80,WUHU21623XXSP,2013-01-11 23:39:00,
2013-01-11 18:44:00,50.9,45.9,29.94,South,180,5.1,6.3,83,0.00,,,0.80,WUHU21623XXSP,2013-01-11 23:44:00,
2013-01-11 18:49:00,50.7,45.7,29.94,SSE,157,5.6,6.9,83,0.00,,,0.80,WUHU21623XXSP,2013-01-11 23:49:00,
2013-01-11 18:54:00,50.5,45.5,29.94,South,180,4.9,6.9,83,0.00,,,0.80,WUHU21623XXSP,2013-01-11 23:54:00,
2013-01-11 18:59:00,50.5,45.5,29.94,SSE,157,6.0,6.0,83,0.00,,,0.80,WUHU21623XXSP,2013-01-11 23:59:00,
2013-01-11 19:04:00,50.5,45.8,29.94,SSE,157,6.5,7.4,84,0.00,,,0.80,WUHU21623XXSP,2013-01-12 00:04:00,
2013-01-11 19:09:00,50.5,45.8,29.95,SSE,157,6.5,7.4,84,0.00,,,0.80,WUHU21623XXSP,2013-01-12 00:09:00,
2013-01-11 19:14:00,50.4,45.6,29.95,South,180,4.9,6.5,84,0.00,,,0.80,WUHU21623XXSP,2013-01-12 00:14:00,
2013-01-11 19:19:00,50.5,46.1,29.94,SSE,157,5.8,6.5,85,0.00,,,0.80,WUHU21623XXSP,2013-01-12 00:19:00,
2013-01-11 19:24:00,50.7,46.3,29.95,South,180,6.9,6.9,85,0.00,,,0.80,WUHU21623XXSP,2013-01-12 00:24:00,
2013-01-11 19:29:00,50.9,46.5,29.95,South,180,6.9,6.9,85,0.00,,,0.80,WUHU21623XXSP,2013-01-12 00:29:00,
2013-01-11 19:34:00,51.1,46.7,29.95,South,180,6.5,6.9,85,0.00,,,0.80,WUHU21623XXSP,2013-01-12 00:34:00,
2013-01-11 19:39:00,51.1,46.7,29.94,SSE,157,4.3,6.9,85,0.00,,,0.80,WUHU21623XXSP,2013-01-12 00:39:00,
2013-01-11 19:44:00,51.3,46.9,29.94,South,180,6.3,6.7,85,0.00,,,0.80,WUHU21623XXSP,2013-01-12 00:44:00,
2013-01-11 19:49:00,51.4,47.0,29.94,SSE,157,6.5,6.5,85,0.00,,,0.80,WUHU21623XXSP,2013-01-12 00:49:00,
2013-01-11 19:54:00,51.4,47.0,29.94,South,180,6.0,6.9,85,0.00,,,0.80,WUHU21623XXSP,2013-01-12 00:54:00,
2013-01-11 19:59:00,51.4,47.0,29.94,South,180,6.9,6.9,85,0.00,,,0.80,WUHU21623XXSP,2013-01-12 00:59:00,
2013-01-11 20:04:00,51.6,47.2,29.94,South,180,6.7,6.9,85,0.00,,,0.80,WUHU21623XXSP,2013-01-12 01:04:00,
2013-01-11 20:09:00,51.6,47.2,29.94,South,180,4.7,6.9,85,0.00,,,0.80,WUHU21623XXSP,2013-01-12 01:09:00,
2013-01-11 20:14:00,51.8,47.4,29.94,South,180,6.9,6.9,85,0.00,,,0.80,WUHU21623XXSP,2013-01-12 01:14:00,
2013-01-11 20:19:00,52.0,47.6,29.94,South,180,6.9,6.9,85,0.00,,,0.80,WUHU21623XXSP,2013-01-12 01:19:00,
2013-01-11 20:24:00,52.0,47.6,29.94,South,180,7.8,7.8,85,0.00,,,0.80,WUHU21623XXSP,2013-01-12 01:24:00,
2013-01-11 20:29:00,52.0,47.6,29.94,South,180,6.3,9.4,85,0.00,,,0.80,WUHU21623XXSP,2013-01-12 01:29:00,
2013-01-11 20:34:00,52.2,47.4,29.94,South,180,7.8,9.4,84,0.00,,,0.80,WUHU21623XXSP,2013-01-12 01:34:00,
2013-01-11 20:39:00,52.2,47.4,29.93,South,180,7.6,7.8,84,0.00,,,0.80,WUHU21623XXSP,2013-01-12 01:39:00,
2013-01-11 20:44:00,52.2,47.4,29.93,SSE,157,8.3,8.3,84,0.00,,,0.80,WUHU21623XXSP,2013-01-12 01:44:00,
2013-01-11 20:49:00,52.2,47.8,29.93,SSE,157,7.6,8.9,85,0.00,,,0.80,WUHU21623XXSP,2013-01-12 01:49:00,
2013-01-11 20:54:00,52.3,47.9,29.93,South,180,9.8,9.8,85,0.00,,,0.80,WUHU21623XXSP,2013-01-12 01:54:00,
2013-01-11 20:59:00,52.3,47.6,29.93,SSE,157,5.6,9.8,84,0.00,,,0.80,WUHU21623XXSP,2013-01-12 01:59:00,
2013-01-11 21:04:00,52.3,47.6,29.93,South,180,6.5,9.6,84,0.00,,,0.80,WUHU21623XXSP,2013-01-12 02:04:00,
2013-01-11 21:09:00,52.3,47.6,29.93,South,180,6.9,9.6,84,0.00,,,0.80,WUHU21623XXSP,2013-01-12 02:09:00,
2013-01-11 21:14:00,52.3,47.6,29.93,South,180,6.9,6.9,84,0.00,,,0.80,WUHU21623XXSP,2013-01-12 02:14:00,
2013-01-11 21:19:00,52.3,47.6,29.93,SSE,157,8.7,8.7,84,0.00,,,0.80,WUHU21623XXSP,2013-01-12 02:19:00,
2013-01-11 21:24:00,52.3,47.6,29.94,SSE,157,8.7,8.7,84,0.00,,,0.80,WUHU21623XXSP,2013-01-12 02:24:00,
2013-01-11 21:29:00,52.3,47.6,29.94,South,180,5.8,8.7,84,0.00,,,0.80,WUHU21623XXSP,2013-01-12 02:29:00,
2013-01-11 21:34:00,52.3,47.6,29.93,South,180,7.4,7.4,84,0.00,,,0.80,WUHU21623XXSP,2013-01-12 02:34:00,
2013-01-11 21:39:00,52.3,47.6,29.93,SSE,157,8.7,8.7,84,0.00,,,0.80,WUHU21623XXSP,2013-01-12 02:39:00,
2013-01-11 21:44:00,52.3,47.6,29.93,SSW,202,7.4,8.7,84,0.00,,,0.80,WUHU21623XXSP,2013-01-12 02:44:00,
2013-01-11 21:49:00,52.3,47.6,29.93,South,180,9.4,9.4,84,0.00,,,0.80,WUHU21623XXSP,2013-01-12 02:49:00,
2013-01-11 21:54:00,52.3,47.6,29.93,South,180,8.1,9.4,84,0.00,,,0.80,WUHU21623XXSP,2013-01-12 02:54:00,
2013-01-11 21:59:00,52.3,47.6,29.93,South,180,6.0,8.1,84,0.00,,,0.80,WUHU21623XXSP,2013-01-12 02:59:00,
2013-01-11 22:04:00,52.3,47.6,29.93,South,180,6.9,7.8,84,0.00,,,0.80,WUHU21623XXSP,2013-01-12 03:04:00,
2013-01-11 22:09:00,52.2,47.4,29.93,South,180,6.9,7.8,84,0.00,,,0.80,WUHU21623XXSP,2013-01-12 03:09:00,
2013-01-11 22:14:00,52.0,47.3,29.94,South,180,4.0,6.9,84,0.00,,,0.80,WUHU21623XXSP,2013-01-12 03:14:00,
2013-01-11 22:19:00,51.6,46.9,29.93,SSE,157,6.9,6.9,84,0.00,,,0.80,WUHU21623XXSP,2013-01-12 03:19:00,
2013-01-11 22:24:00,51.6,46.9,29.93,South,180,7.2,8.3,84,0.00,,,0.80,WUHU21623XXSP,2013-01-12 03:24:00,
2013-01-11 22:29:00,51.6,46.9,29.94,South,180,6.9,8.3,84,0.00,,,0.80,WUHU21623XXSP,2013-01-12 03:29:00,
2013-01-11 22:34:00,51.4,47.0,29.94,South,180,4.9,8.5,85,0.00,,,0.80,WUHU21623XXSP,2013-01-12 03:34:00,
2013-01-11 22:39:00,51.4,47.0,29.94,South,180,6.3,8.5,85,0.00,,,0.80,WUHU21623XXSP,2013-01-12 03:39:00,
2013-01-11 22:44:00,51.4,47.0,29.94,South,180,5.8,6.3,85,0.00,,,0.80,WUHU21623XXSP,2013-01-12 03:44:00,
2013-01-11 22:49:00,51.3,47.0,29.94,South,180,7.4,7.4,85,0.00,,,0.80,WUHU21623XXSP,2013-01-12 03:49:00,
2013-01-11 22:54:00,51.3,46.9,29.94,South,180,7.6,7.6,85,0.00,,,0.80,WUHU21623XXSP,2013-01-12 03:54:00,
2013-01-11 22:59:00,51.3,46.9,29.94,South,180,6.5,7.8,85,0.00,,,0.80,WUHU21623XXSP,2013-01-12 03:59:00,
2013-01-11 23:04:00,51.1,46.7,29.94,South,180,8.5,8.5,85,0.00,,,0.80,WUHU21623XXSP,2013-01-12 04:04:00,
2013-01-11 23:09:00,51.3,46.9,29.95,South,180,5.4,8.5,85,0.00,,,0.80,WUHU21623XXSP,2013-01-12 04:09:00,
2013-01-11 23:14:00,50.9,46.5,29.95,South,180,5.6,6.0,85,0.00,,,0.80,WUHU21623XXSP,2013-01-12 04:14:00,
2013-01-11 23:19:00,50.7,46.3,29.94,South,180,7.4,7.4,85,0.00,,,0.80,WUHU21623XXSP,2013-01-12 04:19:00,
2013-01-11 23:24:00,50.5,46.1,29.95,South,180,6.5,7.4,85,0.00,,,0.80,WUHU21623XXSP,2013-01-12 04:24:00,
2013-01-11 23:29:00,50.5,46.1,29.95,South,180,5.4,6.5,85,0.00,,,0.80,WUHU21623XXSP,2013-01-12 04:29:00,
2013-01-11 23:34:00,50.5,46.1,29.94,South,180,6.9,6.9,85,0.00,,,0.80,WUHU21623XXSP,2013-01-12 04:34:00,
2013-01-11 23:39:00,50.5,46.1,29.94,SSE,157,8.5,8.5,85,0.00,,,0.80,WUHU21623XXSP,2013-01-12 04:39:00,
2013-01-11 23:44:00,50.7,46.3,29.94,South,180,6.9,8.5,85,0.00,,,0.80,WUHU21623XXSP,2013-01-12 04:44:00,
2013-01-11 23:49:00,50.7,46.3,29.93,South,180,7.6,8.5,85,0.00,,,0.80,WUHU21623XXSP,2013-01-12 04:49:00,
2013-01-11 23:54:00,50.7,46.3,29.93,SSE,157,6.7,8.3,85,0.00,,,0.80,WUHU21623XXSP,2013-01-12 04:54:00,
2013-01-11 23:59:00,50.9,46.5,29.93,South,180,7.6,8.3,85,0.00,,,0.80,WUHU21623XXSP,2013-01-12 04:59:00,